Ashland, Nebraska
Current Conditions -  °F | °C
As of 9:15 AM on Thursday 23 Oct 2014 (Local Time) from KMLE Reporting Station
Haze Haze  
Wind Chill: 16°   Ceiling: 800
Heat Index: 16°   Visibility: 4mi
Dew Point: 14°   Wind: 0mph
Humidity: 91%   Direction: NA
Pressure: 30.06"   Gusts: NA
Location:  41.04°N, 96.37°W
Report Text: KMLE 231415Z AUTO 00000KT 4SM BR OVC008 16/14 A3006 RMK AO2 T01550140
Loading
Personal Weather Stations






























Interactive Weather Map
Tropical Storm Tracking
New forecast layout! Learn more

10-Day Weather Forecast

Advertisements
Track Severe Weather on mobile